Time;durP1;ratioP1;P1;durP2;ratioP2;P2;SDS_P1;SDS_P2;PMS_P1;PMS_P2;Temp;Humidity;BMP_temperature;BMP_pressure;BME280_temperature;BME280_humidity;BME280_pressure;Samples;Min_cycle;Max_cycle;Signal;HPM_P1;HPM_P2
2022/12/08 00:02:37;;;;;;;9.35;5.43;;;;;;;6.01;68.73;99889.75;10349894;28;20084;-63
2022/12/08 00:12:59;;;;;;;16.42;6.45;;;;;;;5.75;69.47;99889.72;10348660;28;20065;-64
2022/12/08 00:18:01;;;;;;;11.05;5.93;;;;;;;5.64;69.30;99882.81;10348483;28;20072;-65
2022/12/08 00:23:03;;;;;;;15.85;7.43;;;;;;;5.64;69.66;99890.81;10352732;28;20058;-62
2022/12/08 00:28:04;;;;;;;14.75;6.95;;;;;;;5.62;69.66;99871.47;10345720;28;20081;-65
2022/12/08 00:33:06;;;;;;;16.15;7.10;;;;;;;5.67;69.57;99876.34;10352217;28;20133;-64
2022/12/08 00:38:07;;;;;;;22.52;7.63;;;;;;;5.72;69.73;99868.69;10350510;28;20069;-62
2022/12/08 00:43:08;;;;;;;13.73;6.63;;;;;;;5.80;69.63;99859.91;10348718;28;20081;-61
2022/12/08 00:48:10;;;;;;;17.70;7.28;;;;;;;5.79;69.84;99866.25;10343920;28;20067;-62
2022/12/08 00:53:11;;;;;;;15.63;7.53;;;;;;;5.77;69.75;99869.06;10335162;28;20141;-64
2022/12/08 00:58:12;;;;;;;17.25;7.90;;;;;;;5.95;69.42;99859.19;10346144;28;20145;-66
2022/12/08 01:03:14;;;;;;;14.40;7.78;;;;;;;6.01;69.48;99855.06;10340153;28;20073;-62
2022/12/08 01:08:15;;;;;;;15.93;8.98;;;;;;;5.92;69.72;99854.16;10347846;28;20077;-62
2022/12/08 01:13:17;;;;;;;14.70;7.25;;;;;;;5.88;69.79;99847.44;10353204;28;20153;-62
2022/12/08 01:18:18;;;;;;;18.52;8.32;;;;;;;5.88;69.87;99844.78;10352566;28;20141;-62
2022/12/08 01:23:19;;;;;;;17.15;8.23;;;;;;;5.89;69.76;99848.31;10352036;28;20078;-63
2022/12/08 01:28:21;;;;;;;24.70;9.77;;;;;;;5.85;70.08;99833.63;10348986;28;20074;-64
2022/12/08 01:33:22;;;;;;;20.42;9.30;;;;;;;5.91;70.01;99846.31;10350057;28;20088;-64
2022/12/08 01:38:24;;;;;;;17.83;9.75;;;;;;;5.97;70.19;99845.72;10350430;28;20092;-66
2022/12/08 01:43:49;;;;;;;19.77;8.57;;;;;;;6.02;69.97;99839.88;10348652;28;20120;-65
2022/12/08 01:48:55;;;;;;;16.75;7.90;;;;;;;6.06;69.77;99827.91;10350650;28;20047;-63
2022/12/08 01:53:57;;;;;;;22.25;9.10;;;;;;;6.04;70.49;99835.22;10343773;28;20559;-62
2022/12/08 01:58:58;;;;;;;18.80;9.63;;;;;;;6.04;69.75;99824.56;10350425;28;20141;-62
2022/12/08 02:04:02;;;;;;;21.70;9.32;;;;;;;6.08;69.47;99826.75;10346902;28;20066;-64
2022/12/08 02:09:04;;;;;;;18.38;9.75;;;;;;;6.12;69.72;99825.44;10332057;28;20145;-63
2022/12/08 02:14:09;;;;;;;20.25;10.02;;;;;;;6.19;69.14;99819.47;10348962;28;20041;-64
2022/12/08 02:19:53;;;;;;;22.48;9.88;;;;;;;6.20;69.62;99821.97;10347883;28;20491;-63
2022/12/08 02:25:21;;;;;;;19.20;8.75;;;;;;;6.29;69.93;99814.81;10343242;28;20113;-66
2022/12/08 02:30:28;;;;;;;23.00;10.38;;;;;;;6.38;69.18;99805.00;10346459;28;20137;-63
2022/12/08 02:35:43;;;;;;;24.38;10.02;;;;;;;6.40;69.21;99801.19;10350394;28;20050;-64
2022/12/08 02:41:17;;;;;;;19.90;10.13;;;;;;;6.45;69.34;99795.34;10355032;28;20157;-63
2022/12/08 02:46:28;;;;;;;23.48;10.18;;;;;;;6.43;69.60;99787.50;10343661;28;20070;-63
2022/12/08 02:51:30;;;;;;;18.13;9.88;;;;;;;6.33;69.34;99792.16;10351258;28;20054;-62
2022/12/08 02:56:39;;;;;;;22.55;10.05;;;;;;;6.15;69.52;99787.75;10350888;28;20141;-62
2022/12/08 03:02:12;;;;;;;26.30;10.95;;;;;;;6.09;69.86;99777.72;10353821;28;20103;-63
2022/12/08 03:07:30;;;;;;;24.35;11.00;;;;;;;5.98;70.47;99770.00;10350962;28;20405;-62
2022/12/08 03:12:48;;;;;;;20.95;10.13;;;;;;;5.96;69.88;99774.66;10353262;28;20061;-63
2022/12/08 03:17:53;;;;;;;19.08;9.23;;;;;;;5.91;70.55;99767.13;10353538;28;20524;-62
2022/12/08 03:22:58;;;;;;;22.25;10.38;;;;;;;5.95;70.39;99762.34;10356744;28;20497;-62
2022/12/08 03:28:00;;;;;;;24.63;11.55;;;;;;;5.87;70.69;99764.94;10349113;28;20134;-66
2022/12/08 03:33:08;;;;;;;21.27;10.23;;;;;;;5.87;70.84;99760.44;10356095;28;20132;-63
2022/12/08 03:38:13;;;;;;;23.35;11.02;;;;;;;5.87;70.88;99749.78;10350928;28;20047;-62
2022/12/08 03:43:15;;;;;;;25.73;12.40;;;;;;;5.99;70.87;99752.19;10353978;28;20085;-62
2022/12/08 03:48:16;;;;;;;25.23;11.45;;;;;;;6.06;70.48;99748.72;10333893;28;20076;-63
2022/12/08 03:53:18;;;;;;;23.92;10.82;;;;;;;6.06;70.11;99746.06;10349073;28;20082;-62
2022/12/08 03:58:19;;;;;;;23.52;11.13;;;;;;;6.06;70.31;99729.19;10351042;28;20081;-65
2022/12/08 04:03:20;;;;;;;30.88;11.60;;;;;;;6.05;70.36;99730.19;10349892;28;20069;-61
2022/12/08 04:08:22;;;;;;;29.92;11.00;;;;;;;6.06;70.54;99735.38;10352918;28;20054;-63
2022/12/08 04:13:23;;;;;;;22.88;9.40;;;;;;;6.04;71.09;99718.69;10354586;28;20076;-63
2022/12/08 04:18:25;;;;;;;26.85;11.20;;;;;;;6.10;70.89;99722.53;10351635;28;20539;-65
2022/12/08 04:23:26;;;;;;;28.92;11.65;;;;;;;6.06;70.33;99715.84;10356243;28;20054;-63
2022/12/08 04:28:30;;;;;;;24.27;11.40;;;;;;;6.08;71.33;99714.72;10349684;28;20065;-63
2022/12/08 04:33:33;;;;;;;28.38;12.73;;;;;;;6.08;70.89;99720.03;10352310;28;20137;-63
2022/12/08 04:38:35;;;;;;;29.83;10.80;;;;;;;6.04;70.70;99718.69;10347956;28;20076;-64
2022/12/08 04:43:37;;;;;;;24.23;12.30;;;;;;;6.06;71.03;99706.03;10352828;28;20076;-62
2022/12/08 04:48:39;;;;;;;28.92;10.50;;;;;;;6.05;71.34;99715.00;10342838;28;20057;-64
2022/12/08 04:53:42;;;;;;;27.67;11.55;;;;;;;6.00;71.16;99701.31;10347337;28;20104;-64
2022/12/08 04:58:47;;;;;;;29.92;12.77;;;;;;;6.03;71.57;99701.00;10349325;28;20129;-65
2022/12/08 05:03:48;;;;;;;30.15;11.68;;;;;;;5.99;70.77;99699.66;10346732;28;20066;-63
2022/12/08 05:08:50;;;;;;;27.50;12.00;;;;;;;5.99;71.66;99694.31;10354102;28;20161;-62
2022/12/08 05:13:51;;;;;;;30.58;13.32;;;;;;;6.07;71.28;99696.19;10351889;28;20096;-63
2022/12/08 05:18:53;;;;;;;24.23;11.23;;;;;;;6.11;71.50;99694.84;10351175;28;20074;-63
2022/12/08 05:23:54;;;;;;;29.05;10.85;;;;;;;6.13;71.30;99691.03;10348581;28;20145;-62
2022/12/08 05:28:55;;;;;;;27.33;11.77;;;;;;;6.14;71.42;99682.03;10350803;28;20125;-65
2022/12/08 05:33:57;;;;;;;28.98;11.25;;;;;;;6.22;70.54;99683.03;10334163;28;20074;-62
2022/12/08 05:39:03;;;;;;;28.27;11.70;;;;;;;6.24;70.80;99686.34;10348632;28;20042;-62
2022/12/08 05:44:05;;;;;;;26.20;11.60;;;;;;;6.32;71.52;99678.41;10351418;28;20140;-62
2022/12/08 05:49:06;;;;;;;27.42;12.77;;;;;;;6.32;70.68;99684.56;10350585;28;20073;-65
2022/12/08 05:54:08;;;;;;;29.27;11.98;;;;;;;6.31;71.29;99676.72;10349985;28;20073;-63
2022/12/08 05:59:09;;;;;;;24.42;11.30;;;;;;;6.40;70.43;99675.72;10346387;28;20045;-65
2022/12/08 06:04:11;;;;;;;27.70;11.15;;;;;;;6.39;70.85;99668.69;10350268;28;20080;-64
2022/12/08 06:09:12;;;;;;;24.10;11.70;;;;;;;6.32;70.93;99663.19;10353117;28;20057;-66
2022/12/08 06:14:14;;;;;;;24.73;11.15;;;;;;;6.37;71.42;99664.53;10346793;28;20145;-64
2022/12/08 06:19:15;;;;;;;26.33;12.02;;;;;;;6.39;71.29;99668.69;10351246;28;20065;-62
2022/12/08 06:24:16;;;;;;;24.38;11.50;;;;;;;6.47;71.53;99659.88;10351702;28;20114;-63
2022/12/08 06:29:18;;;;;;;24.13;10.18;;;;;;;6.45;71.54;99668.03;10361394;28;20100;-66
2022/12/08 06:34:19;;;;;;;21.90;10.18;;;;;;;6.43;71.03;99667.38;10374029;28;20053;-64
2022/12/08 06:39:20;;;;;;;19.35;8.90;;;;;;;6.43;70.97;99667.38;10358659;28;20123;-64
2022/12/08 06:44:22;;;;;;;25.00;10.10;;;;;;;6.38;71.37;99660.84;10352552;28;20122;-64
2022/12/08 06:49:23;;;;;;;20.13;8.73;;;;;;;6.33;71.36;99674.72;10357593;28;20768;-62
2022/12/08 06:54:25;;;;;;;17.90;9.00;;;;;;;6.32;71.04;99667.72;10356367;28;20414;-63
2022/12/08 06:59:26;;;;;;;23.70;9.07;;;;;;;6.35;70.82;99660.19;10340291;28;20085;-62
2022/12/08 07:04:28;;;;;;;20.75;9.20;;;;;;;6.44;71.38;99661.03;10355239;28;20066;-65
2022/12/08 07:09:29;;;;;;;21.17;8.38;;;;;;;6.46;71.21;99663.56;10365177;28;20050;-66
2022/12/08 07:14:31;;;;;;;18.52;8.43;;;;;;;6.53;70.27;99664.53;10341261;28;20046;-63
2022/12/08 07:19:32;;;;;;;24.73;8.55;;;;;;;6.42;71.49;99664.84;10365219;28;20100;-63
2022/12/08 07:24:33;;;;;;;21.40;10.70;;;;;;;6.37;70.84;99675.22;10365120;28;20053;-64
2022/12/08 07:29:35;;;;;;;18.63;9.13;;;;;;;6.34;71.69;99665.72;10362059;28;20110;-64
2022/12/08 07:34:36;;;;;;;22.58;9.15;;;;;;;6.26;71.01;99655.00;10363805;28;20122;-64
2022/12/08 07:39:37;;;;;;;17.80;8.93;;;;;;;6.18;71.11;99660.34;10369981;28;20045;-64
2022/12/08 07:44:39;;;;;;;21.67;8.85;;;;;;;6.19;71.73;99664.69;10377999;28;20042;-65
2022/12/08 07:49:40;;;;;;;23.25;9.63;;;;;;;6.11;71.45;99661.00;10377460;28;20057;-64
2022/12/08 07:54:42;;;;;;;24.20;11.05;;;;;;;6.03;72.24;99657.50;10391857;28;20094;-65
2022/12/08 07:59:43;;;;;;;24.38;10.32;;;;;;;6.05;71.99;99661.66;10394246;28;20038;-63
2022/12/08 08:04:49;;;;;;;23.38;10.75;;;;;;;5.93;71.75;99668.28;10397117;28;20042;-63
2022/12/08 08:09:50;;;;;;;22.65;10.05;;;;;;;5.84;72.06;99663.91;10397754;28;20030;-62
2022/12/08 08:14:51;;;;;;;27.05;11.07;;;;;;;5.86;71.81;99669.91;10398860;28;20057;-63
2022/12/08 08:19:53;;;;;;;25.73;11.60;;;;;;;5.93;72.38;99668.28;10393732;28;20060;-64
2022/12/08 08:24:54;;;;;;;23.95;10.93;;;;;;;6.09;71.86;99676.34;10393680;28;20034;-63
2022/12/08 08:29:56;;;;;;;23.77;11.10;;;;;;;6.06;72.06;99671.34;10388584;28;20046;-64
2022/12/08 08:34:57;;;;;;;24.55;10.25;;;;;;;6.14;72.31;99668.69;10391420;28;20065;-64
2022/12/08 08:39:58;;;;;;;23.23;10.32;;;;;;;6.21;72.11;99665.34;10390972;28;20065;-63
2022/12/08 08:45:00;;;;;;;19.52;9.70;;;;;;;6.26;71.90;99679.03;10394984;28;20040;-63
2022/12/08 08:50:02;;;;;;;24.80;10.50;;;;;;;6.28;71.66;99677.88;10397619;28;20049;-63
2022/12/08 08:55:05;;;;;;;20.70;10.05;;;;;;;6.28;71.70;99666.34;10390434;28;20117;-63
2022/12/08 09:00:09;;;;;;;23.95;10.73;;;;;;;6.28;72.19;99666.34;10389849;28;20042;-62
2022/12/08 09:05:10;;;;;;;21.35;9.98;;;;;;;6.24;72.62;99665.00;10394629;28;20053;-64
2022/12/08 09:10:11;;;;;;;21.75;11.13;;;;;;;6.15;72.46;99657.00;10392739;28;20040;-64
2022/12/08 09:15:13;;;;;;;25.35;11.43;;;;;;;6.19;72.03;99665.50;10388925;28;20054;-62
2022/12/08 09:20:14;;;;;;;23.60;10.73;;;;;;;6.22;72.27;99667.00;10379057;28;20066;-63
2022/12/08 09:25:16;;;;;;;21.90;10.38;;;;;;;6.22;72.27;99667.88;10383275;28;20057;-63
2022/12/08 09:30:17;;;;;;;23.95;10.93;;;;;;;6.21;72.38;99670.69;10369708;28;20038;-62
2022/12/08 09:35:19;;;;;;;22.13;9.82;;;;;;;6.23;72.56;99672.19;10375498;28;20050;-62
2022/12/08 09:40:22;;;;;;;23.40;10.18;;;;;;;6.18;72.24;99665.69;10373763;28;20047;-63
2022/12/08 09:45:28;;;;;;;19.17;9.05;;;;;;;6.25;72.96;99656.03;10357192;28;20077;-64
2022/12/08 09:50:54;;;;;;;19.52;8.85;;;;;;;6.24;72.78;99636.50;10372062;28;20080;-65
2022/12/08 09:56:02;;;;;;;16.52;8.32;;;;;;;6.24;72.85;99635.66;10345918;28;20410;-63
2022/12/08 10:01:03;;;;;;;;;;;;;;;6.26;73.14;99629.19;10378426;28;20058;-63
2022/12/08 10:06:29;;;;;;;16.90;8.55;;;;;;;6.32;72.63;99630.34;10382599;28;19976;-63
2022/12/08 10:11:55;;;;;;;17.90;7.57;;;;;;;6.41;71.96;99618.66;10365847;28;20397;-63
2022/12/08 10:17:03;;;;;;;14.20;6.43;;;;;;;6.57;72.47;99620.47;10366619;28;20061;-63
2022/12/08 10:22:17;;;;;;;13.73;6.72;;;;;;;6.52;72.93;99617.50;10359637;28;20101;-64
2022/12/08 10:27:19;;;;;;;15.30;6.25;;;;;;;6.65;71.91;99614.28;10348673;28;20058;-66
2022/12/08 10:32:26;;;;;;;16.08;6.60;;;;;;;6.79;71.39;99605.59;10338169;28;20144;-69
2022/12/08 10:37:28;;;;;;;15.40;6.97;;;;;;;6.71;71.87;99602.94;10340213;28;20577;-67
2022/12/08 10:42:36;;;;;;;14.02;6.57;;;;;;;6.80;71.67;99593.91;10340041;28;20082;-68
2022/12/08 10:47:40;;;;;;;16.08;6.15;;;;;;;7.01;70.69;99596.03;10329790;28;20065;-67
2022/12/08 10:52:57;;;;;;;12.68;6.63;;;;;;;7.11;70.18;99585.97;10345420;28;20038;-68
2022/12/08 10:57:58;;;;;;;15.00;6.72;;;;;;;7.06;71.11;99577.63;10344952;28;20046;-69
2022/12/08 11:03:02;;;;;;;13.95;5.55;;;;;;;7.03;70.86;99583.34;10349227;28;20061;-67
2022/12/08 11:08:04;;;;;;;15.48;6.70;;;;;;;7.22;70.73;99576.75;10347167;28;20057;-69
2022/12/08 11:13:18;;;;;;;11.20;6.05;;;;;;;7.12;70.29;99579.63;10353295;28;20050;-68
2022/12/08 11:18:28;;;;;;;12.23;6.05;;;;;;;7.21;70.33;99561.72;10350484;28;20145;-66
2022/12/08 11:23:30;;;;;;;12.75;6.13;;;;;;;7.24;70.01;99569.38;10352860;28;20084;-68
2022/12/08 11:28:31;;;;;;;12.40;5.75;;;;;;;7.28;70.51;99567.19;10348932;28;20054;-68
2022/12/08 11:33:33;;;;;;;12.48;5.80;;;;;;;7.34;69.79;99556.63;10347867;28;20459;-68
2022/12/08 11:38:40;;;;;;;13.68;6.25;;;;;;;7.39;69.48;99544.59;10350252;28;20058;-67
2022/12/08 11:44:00;;;;;;;11.07;5.78;;;;;;;7.50;69.64;99546.84;10347539;28;20075;-68
2022/12/08 11:49:05;;;;;;;11.55;5.70;;;;;;;7.48;68.80;99547.03;10347946;28;20060;-68
2022/12/08 11:54:07;;;;;;;10.93;5.57;;;;;;;7.45;69.39;99541.22;10343117;28;20046;-68
2022/12/08 11:59:31;;;;;;;12.63;5.22;;;;;;;7.55;69.19;99545.31;10346687;28;20094;-68
2022/12/08 12:04:43;;;;;;;12.85;5.68;;;;;;;7.61;68.91;99541.13;10346320;28;20461;-68
2022/12/08 12:10:22;;;;;;;11.80;5.88;;;;;;;7.68;68.16;99539.41;10347028;28;20100;-67
2022/12/08 12:15:45;;;;;;;15.68;6.03;;;;;;;7.62;68.69;99534.78;10343704;28;20129;-67
2022/12/08 12:20:53;;;;;;;10.32;5.10;;;;;;;7.66;67.96;99528.06;10282625;28;20138;-68
2022/12/08 12:26:00;;;;;;;12.00;5.82;;;;;;;7.67;68.36;99523.53;10273070;28;20134;-68
2022/12/08 12:31:07;;;;;;;14.82;6.85;;;;;;;7.66;68.19;99527.19;10261368;28;20078;-67
2022/12/08 12:36:09;;;;;;;8.80;4.68;;;;;;;7.67;67.78;99515.50;10269535;28;20422;-69
2022/12/08 12:41:13;;;;;;;10.05;4.68;;;;;;;7.68;68.04;99512.66;10263093;28;20114;-67
2022/12/08 12:46:23;;;;;;;13.80;5.47;;;;;;;7.71;67.70;99509.63;10262117;28;20093;-70
2022/12/08 12:51:43;;;;;;;10.32;4.68;;;;;;;7.90;67.71;99507.50;10262923;28;20059;-71
2022/12/08 12:56:48;;;;;;;14.60;5.57;;;;;;;7.82;68.14;99505.72;10260394;28;20155;-69
2022/12/08 13:01:53;;;;;;;11.25;6.07;;;;;;;7.73;67.28;99504.91;10263337;28;20081;-68
2022/12/08 13:06:55;;;;;;;8.13;4.20;;;;;;;7.88;67.57;99498.81;10265677;28;20516;-70
2022/12/08 13:12:06;;;;;;;12.80;4.45;;;;;;;7.81;67.60;99500.53;10264614;28;20523;-69
2022/12/08 13:17:12;;;;;;;10.90;5.00;;;;;;;7.79;67.46;99502.56;10274671;28;20089;-66
2022/12/08 13:22:51;;;;;;;10.48;5.20;;;;;;;7.57;67.41;99497.03;10343249;28;20092;-66
2022/12/08 13:27:53;;;;;;;7.85;3.90;;;;;;;7.40;68.20;99490.94;10343984;28;20126;-68
2022/12/08 13:32:57;;;;;;;12.88;4.15;;;;;;;7.38;68.27;99495.63;10341626;28;20074;-68
2022/12/08 13:38:24;;;;;;;8.77;4.65;;;;;;;7.46;67.90;99484.03;10345775;28;20530;-68
2022/12/08 13:43:43;;;;;;;9.20;4.32;;;;;;;7.51;68.22;99481.69;10339282;28;20161;-67
2022/12/08 13:49:06;;;;;;;6.80;3.97;;;;;;;7.52;68.00;99475.31;10338637;28;20058;-66
2022/12/08 13:54:32;;;;;;;9.98;4.60;;;;;;;7.58;67.56;99469.25;10339978;28;20417;-68
2022/12/08 14:00:04;;;;;;;11.07;4.53;;;;;;;7.68;67.07;99471.69;10341928;28;20466;-68
2022/12/08 14:05:06;;;;;;;4.15;2.35;;;;;;;7.59;66.95;99478.94;10348491;28;20046;-68
2022/12/08 14:10:30;;;;;;;4.18;1.77;;;;;;;7.42;67.68;99485.41;10341048;28;20050;-68
2022/12/08 14:15:32;;;;;;;8.00;1.70;;;;;;;7.25;66.93;99493.53;10339913;28;20733;-68
2022/12/08 14:20:39;;;;;;;3.37;1.47;;;;;;;7.32;66.30;99482.97;10343230;28;20045;-68
2022/12/08 14:26:03;;;;;;;5.80;2.72;;;;;;;7.37;65.58;99485.97;10326551;28;20453;-67
2022/12/08 14:31:08;;;;;;;4.95;1.65;;;;;;;7.34;66.09;99489.78;10339656;28;20050;-68
2022/12/08 14:36:11;;;;;;;4.95;2.08;;;;;;;7.41;66.01;99489.94;10339650;28;20057;-67
2022/12/08 14:41:13;;;;;;;3.80;1.65;;;;;;;7.38;65.36;99492.13;10338323;28;20402;-64
2022/12/08 14:46:20;;;;;;;3.92;2.47;;;;;;;7.29;65.03;99492.19;10331820;28;20309;-67
2022/12/08 14:51:29;;;;;;;4.78;2.30;;;;;;;7.29;65.16;99494.84;10341448;28;20156;-66
2022/12/08 14:56:41;;;;;;;4.60;2.30;;;;;;;7.25;64.96;99493.53;10340477;28;20076;-67
2022/12/08 15:01:44;;;;;;;4.38;2.13;;;;;;;7.32;65.15;99489.13;10339613;28;20042;-66
2022/12/08 15:06:59;;;;;;;5.65;2.53;;;;;;;7.25;65.13;99493.53;10347375;28;20096;-64
2022/12/08 15:12:17;;;;;;;4.32;2.47;;;;;;;7.22;65.44;99498.41;10352973;28;20108;-64
2022/12/08 15:17:39;;;;;;;6.30;1.95;;;;;;;7.25;64.37;99498.88;10342033;28;20129;-64
2022/12/08 15:22:40;;;;;;;6.97;2.30;;;;;;;7.18;64.59;99510.44;10340076;28;20050;-65
2022/12/08 15:27:42;;;;;;;4.45;2.70;;;;;;;7.03;65.06;99513.00;10344762;28;20046;-65
2022/12/08 15:32:52;;;;;;;2.20;1.08;;;;;;;6.74;65.04;99511.81;10345064;28;20041;-66
2022/12/08 15:37:55;;;;;;;2.28;1.17;;;;;;;6.67;65.32;99508.97;10327815;28;20073;-65
2022/12/08 15:42:57;;;;;;;2.15;1.50;;;;;;;6.53;64.85;99502.50;10343423;28;20058;-64
2022/12/08 15:47:58;;;;;;;1.65;1.00;;;;;;;6.42;65.53;99508.22;10349618;28;20137;-64
2022/12/08 15:53:00;;;;;;;2.33;0.98;;;;;;;6.54;65.69;99509.53;10344773;28;20486;-64
2022/12/08 15:58:02;;;;;;;2.17;1.20;;;;;;;6.63;64.84;99509.50;10361191;28;20053;-67
2022/12/08 16:03:28;;;;;;;3.17;1.63;;;;;;;6.49;65.73;99509.19;10357962;28;20604;-67
2022/12/08 16:08:49;;;;;;;4.32;1.30;;;;;;;6.53;66.11;99499.81;10366273;28;20045;-69
2022/12/08 16:14:11;;;;;;;2.15;1.02;;;;;;;6.50;65.40;99496.69;10347863;28;20137;-69
2022/12/08 16:19:32;;;;;;;3.28;1.27;;;;;;;6.55;65.89;99492.47;10349086;28;20054;-69
2022/12/08 16:24:33;;;;;;;4.70;1.45;;;;;;;6.61;65.74;99492.81;10348917;28;20140;-69
2022/12/08 16:29:35;;;;;;;4.07;1.90;;;;;;;6.63;65.73;99504.16;10349629;28;20270;-70
2022/12/08 16:34:36;;;;;;;4.13;2.78;;;;;;;6.53;66.72;99504.34;10350328;28;20076;-68
2022/12/08 16:39:38;;;;;;;4.70;2.25;;;;;;;6.62;66.45;99505.16;10343002;28;20132;-68
2022/12/08 16:44:46;;;;;;;4.10;2.35;;;;;;;6.54;66.89;99506.03;10326204;28;20054;-68
2022/12/08 16:49:47;;;;;;;11.15;3.92;;;;;;;6.46;67.36;99508.72;10351567;28;20168;-68
2022/12/08 16:54:48;;;;;;;6.50;3.80;;;;;;;6.45;67.24;99502.53;10347944;28;20073;-69
2022/12/08 16:59:50;;;;;;;6.75;4.00;;;;;;;6.50;67.53;99494.84;10348035;28;20133;-68
2022/12/08 17:04:51;;;;;;;9.23;4.03;;;;;;;6.49;67.78;99489.66;10345640;28;20042;-67
2022/12/08 17:09:53;;;;;;;8.23;4.57;;;;;;;6.48;68.05;99494.19;10345470;28;20445;-68
2022/12/08 17:14:54;;;;;;;14.52;7.43;;;;;;;6.34;68.75;99492.22;10345491;28;20100;-67
2022/12/08 17:19:56;;;;;;;14.80;7.15;;;;;;;6.22;68.98;99493.56;10341932;28;20541;-67
2022/12/08 17:24:57;;;;;;;16.75;8.05;;;;;;;6.23;69.16;99488.06;10343620;28;20405;-67
2022/12/08 17:29:59;;;;;;;18.42;7.50;;;;;;;6.32;68.60;99486.22;10342349;28;20042;-69
2022/12/08 17:35:00;;;;;;;13.77;7.55;;;;;;;6.27;69.12;99483.22;10318330;28;20050;-67
2022/12/08 17:40:02;;;;;;;15.15;7.63;;;;;;;6.26;69.26;99482.41;10341103;28;20049;-68
2022/12/08 17:45:05;;;;;;;18.70;7.55;;;;;;;6.26;68.64;99478.88;10341627;28;20420;-68
2022/12/08 17:50:08;;;;;;;13.90;6.50;;;;;;;6.25;68.88;99477.22;10337600;28;20069;-69
2022/12/08 17:55:09;;;;;;;16.77;7.93;;;;;;;6.18;69.83;99476.22;10335182;28;20050;-68
2022/12/08 18:00:12;;;;;;;16.77;7.80;;;;;;;6.18;69.34;99473.56;10340458;28;20294;-68
2022/12/08 18:05:14;;;;;;;9.27;4.72;;;;;;;6.03;70.10;99471.56;10342558;28;20134;-68
2022/12/08 18:10:16;;;;;;;10.00;5.13;;;;;;;5.95;69.88;99467.06;10347510;28;20073;-69
2022/12/08 18:15:18;;;;;;;9.35;4.93;;;;;;;5.99;69.19;99478.25;10331225;28;20069;-68
2022/12/08 18:20:20;;;;;;;11.07;4.47;;;;;;;5.89;69.08;99475.72;10346011;28;20089;-70
2022/12/08 18:25:21;;;;;;;11.98;5.18;;;;;;;6.00;68.80;99473.75;10331333;28;20488;-69
2022/12/08 18:30:23;;;;;;;11.05;5.45;;;;;;;6.05;69.13;99466.91;10343190;28;20070;-69
2022/12/08 18:35:25;;;;;;;17.52;5.70;;;;;;;6.18;68.57;99473.56;10337939;28;20069;-68
2022/12/08 18:40:27;;;;;;;12.85;6.88;;;;;;;6.20;68.22;99468.88;10325133;28;20544;-68
2022/12/08 18:45:29;;;;;;;13.23;6.13;;;;;;;6.16;68.84;99479.06;10324610;28;20137;-68
2022/12/08 18:50:30;;;;;;;50.05;21.45;;;;;;;6.12;68.62;99475.91;10346778;28;20140;-70
2022/12/08 18:55:31;;;;;;;36.53;17.52;;;;;;;6.15;68.76;99474.72;10341573;28;20084;-69
2022/12/08 19:00:33;;;;;;;23.85;13.57;;;;;;;6.22;68.61;99481.06;10343600;28;20069;-70
2022/12/08 19:05:34;;;;;;;15.35;7.75;;;;;;;6.21;69.57;99484.72;10331343;28;20137;-69
2022/12/08 19:10:37;;;;;;;28.00;13.57;;;;;;;6.12;69.82;99483.91;10342291;28;20177;-70
2022/12/08 19:15:38;;;;;;;19.92;10.93;;;;;;;6.21;69.01;99478.56;10351313;28;20489;-68
2022/12/08 19:20:39;;;;;;;14.52;6.63;;;;;;;6.13;69.10;99477.56;10352064;28;20104;-71
2022/12/08 19:25:41;;;;;;;16.75;7.70;;;;;;;6.08;69.39;99477.25;10353913;28;20205;-68
2022/12/08 19:30:42;;;;;;;18.27;8.70;;;;;;;6.04;70.17;99486.59;10345642;28;20685;-68
2022/12/08 19:35:45;;;;;;;16.90;7.68;;;;;;;6.13;69.52;99484.75;10351179;28;20044;-69
2022/12/08 19:46:12;;;;;;;16.83;7.95;;;;;;;6.12;69.30;99491.06;10349761;28;20595;-70
2022/12/08 19:51:14;;;;;;;21.42;9.15;;;;;;;6.15;69.71;99490.75;10347692;28;20060;-69
2022/12/08 19:56:15;;;;;;;14.32;7.97;;;;;;;6.23;69.56;99490.72;10351181;28;20073;-75
2022/12/08 20:01:17;;;;;;;14.57;7.68;;;;;;;6.19;69.11;99477.91;10345109;28;20145;-72
2022/12/08 20:06:18;;;;;;;17.20;7.38;;;;;;;6.22;69.70;99480.22;10344757;28;20479;-75
2022/12/08 20:11:20;;;;;;;15.68;7.60;;;;;;;6.21;69.41;99481.22;10331345;28;20583;-75
2022/12/08 20:16:22;;;;;;;15.60;7.82;;;;;;;6.15;69.39;99469.41;10354592;28;20128;-74
2022/12/08 20:21:24;;;;;;;17.35;8.30;;;;;;;6.12;69.42;99477.72;10331700;28;20506;-73
2022/12/08 20:26:25;;;;;;;14.80;8.27;;;;;;;6.14;69.10;99473.91;10346206;28;20046;-71
2022/12/08 20:31:29;;;;;;;19.02;8.40;;;;;;;6.10;69.46;99475.25;10334087;28;20144;-77
2022/12/08 20:36:30;;;;;;;16.33;8.13;;;;;;;6.07;69.42;99474.75;10347189;28;20385;-73
2022/12/08 20:41:31;;;;;;;13.98;7.00;;;;;;;6.07;69.77;99469.41;10347052;28;20046;-72
2022/12/08 20:46:39;;;;;;;20.42;8.02;;;;;;;6.01;69.67;99478.09;10345517;28;20049;-77
2022/12/08 20:51:48;;;;;;;16.15;8.30;;;;;;;6.01;69.60;99478.09;10314830;28;20050;-78
2022/12/08 20:56:50;;;;;;;14.32;7.13;;;;;;;6.09;69.72;99476.22;10345654;28;20042;-75
2022/12/08 21:01:52;;;;;;;15.82;8.13;;;;;;;6.16;69.05;99476.38;10345427;28;20159;-74
2022/12/08 21:06:54;;;;;;;17.92;8.45;;;;;;;6.19;69.18;99484.06;10340954;28;20057;-73
2022/12/08 21:11:55;;;;;;;14.10;7.75;;;;;;;6.19;69.36;99483.25;10324130;28;20050;-70
2022/12/08 21:16:57;;;;;;;14.23;7.93;;;;;;;6.21;69.25;99471.38;10342536;28;20055;-74
2022/12/08 21:21:58;;;;;;;16.48;7.80;;;;;;;6.24;69.71;99472.88;10341287;28;20049;-73
2022/12/08 21:27:00;;;;;;;13.55;7.60;;;;;;;6.24;68.72;99478.22;10342270;28;20425;-75
2022/12/08 21:32:01;;;;;;;15.50;7.45;;;;;;;6.25;68.92;99478.03;10345500;28;20039;-71
2022/12/08 21:37:03;;;;;;;15.65;7.45;;;;;;;6.22;68.75;99481.06;10325494;28;20085;-75
2022/12/08 21:47:35;;;;;;;17.17;8.20;;;;;;;6.24;68.95;99486.22;10327194;28;20137;-73
2022/12/08 21:52:38;;;;;;;12.48;6.85;;;;;;;6.23;69.08;99481.91;10336817;28;20052;-73
2022/12/08 21:57:40;;;;;;;13.38;6.82;;;;;;;6.19;68.82;99480.56;10341668;28;20050;-73
2022/12/08 22:02:42;;;;;;;16.50;7.47;;;;;;;6.13;69.28;99482.06;10325430;28;20723;-76
2022/12/08 22:07:44;;;;;;;15.32;8.07;;;;;;;6.17;68.90;99480.72;10341509;28;20042;-72
2022/12/08 22:12:45;;;;;;;16.10;8.18;;;;;;;6.17;68.70;99487.91;10327002;28;20042;-75
2022/12/08 22:17:47;;;;;;;13.18;7.07;;;;;;;6.11;69.03;99482.22;10348376;28;20144;-74
2022/12/08 22:22:48;;;;;;;15.93;7.78;;;;;;;6.12;69.18;99486.59;10338891;28;20128;-75
2022/12/08 22:27:50;;;;;;;15.80;7.30;;;;;;;6.10;68.72;99485.06;10346825;28;20500;-75
2022/12/08 22:32:52;;;;;;;13.52;7.97;;;;;;;6.17;69.21;99482.56;10340262;28;20043;-74
2022/12/08 22:37:54;;;;;;;20.20;8.40;;;;;;;6.25;68.72;99486.03;10341549;28;20050;-73
2022/12/08 22:42:55;;;;;;;16.50;7.75;;;;;;;6.28;68.09;99484.88;10345905;28;20074;-73
2022/12/08 22:47:57;;;;;;;16.35;7.50;;;;;;;6.28;69.09;99474.19;10327142;28;20125;-70
2022/12/08 22:52:59;;;;;;;14.10;6.55;;;;;;;6.21;68.47;99474.06;10320121;28;20469;-68
2022/12/08 22:58:00;;;;;;;13.07;7.15;;;;;;;6.13;68.44;99472.22;10345746;28;20070;-72
2022/12/08 23:03:03;;;;;;;13.65;7.03;;;;;;;6.20;68.44;99471.53;10347090;28;20046;-75
2022/12/08 23:08:06;;;;;;;14.52;6.82;;;;;;;6.25;68.33;99461.22;10354200;28;20512;-72
2022/12/08 23:13:08;;;;;;;12.77;7.25;;;;;;;6.27;67.95;99460.03;10332216;28;20518;-70
2022/12/08 23:18:14;;;;;;;13.52;6.63;;;;;;;6.23;68.83;99466.72;10347782;28;20061;-73
2022/12/08 23:23:16;;;;;;;11.82;6.22;;;;;;;6.26;67.86;99463.72;10338547;28;20100;-71
2022/12/08 23:28:17;;;;;;;16.05;6.60;;;;;;;6.29;68.12;99462.53;10347933;28;20069;-71
2022/12/08 23:33:18;;;;;;;14.63;6.32;;;;;;;6.25;68.73;99462.03;10331462;28;20441;-71
2022/12/08 23:38:20;;;;;;;13.73;6.72;;;;;;;6.20;68.46;99463.53;10351193;28;20510;-72
2022/12/08 23:43:21;;;;;;;12.50;6.38;;;;;;;6.10;68.67;99464.56;10344264;28;20058;-72
2022/12/08 23:48:23;;;;;;;13.60;7.85;;;;;;;6.09;68.04;99457.56;10331019;28;20054;-73
2022/12/08 23:53:24;;;;;;;13.35;6.57;;;;;;;6.07;68.84;99446.22;10342923;28;20053;-72